sensor_id;sensor_type;location;lat;lon;timestamp;P1;durP1;ratioP1;P2;durP2;ratioP2
29294;SDS011;16305;48.566;8.846;2022-12-24T00:00:18;8.00;;;1.70;;
29294;SDS011;16305;48.566;8.846;2022-12-24T00:02:44;8.10;;;1.33;;
29294;SDS011;16305;48.566;8.846;2022-12-24T00:05:10;3.23;;;1.40;;
29294;SDS011;16305;48.566;8.846;2022-12-24T00:07:35;4.80;;;1.60;;
29294;SDS011;16305;48.566;8.846;2022-12-24T00:10:01;4.73;;;1.23;;
29294;SDS011;16305;48.566;8.846;2022-12-24T00:12:28;4.03;;;1.20;;
29294;SDS011;16305;48.566;8.846;2022-12-24T00:14:53;6.63;;;1.40;;
29294;SDS011;16305;48.566;8.846;2022-12-24T00:17:19;5.53;;;1.10;;
29294;SDS011;16305;48.566;8.846;2022-12-24T00:19:44;2.03;;;1.20;;
29294;SDS011;16305;48.566;8.846;2022-12-24T00:22:10;4.80;;;1.50;;
29294;SDS011;16305;48.566;8.846;2022-12-24T00:24:35;6.20;;;2.00;;
29294;SDS011;16305;48.566;8.846;2022-12-24T00:27:01;5.43;;;2.00;;
29294;SDS011;16305;48.566;8.846;2022-12-24T00:29:27;6.93;;;1.53;;
29294;SDS011;16305;48.566;8.846;2022-12-24T00:31:53;7.00;;;2.20;;
29294;SDS011;16305;48.566;8.846;2022-12-24T00:34:18;4.40;;;2.03;;
29294;SDS011;16305;48.566;8.846;2022-12-24T00:36:46;5.80;;;2.17;;
29294;SDS011;16305;48.566;8.846;2022-12-24T00:39:11;6.07;;;1.93;;
29294;SDS011;16305;48.566;8.846;2022-12-24T00:41:37;7.23;;;1.90;;
29294;SDS011;16305;48.566;8.846;2022-12-24T00:44:04;4.57;;;1.90;;
29294;SDS011;16305;48.566;8.846;2022-12-24T00:46:34;1.73;;;0.90;;
29294;SDS011;16305;48.566;8.846;2022-12-24T00:49:01;4.03;;;1.23;;
29294;SDS011;16305;48.566;8.846;2022-12-24T00:51:27;5.57;;;1.43;;
29294;SDS011;16305;48.566;8.846;2022-12-24T00:53:53;4.57;;;1.70;;
29294;SDS011;16305;48.566;8.846;2022-12-24T00:56:19;5.13;;;1.50;;
29294;SDS011;16305;48.566;8.846;2022-12-24T00:58:45;7.30;;;1.63;;
29294;SDS011;16305;48.566;8.846;2022-12-24T01:01:11;5.63;;;1.30;;
29294;SDS011;16305;48.566;8.846;2022-12-24T01:03:37;6.20;;;2.10;;
29294;SDS011;16305;48.566;8.846;2022-12-24T01:06:03;5.27;;;1.50;;
29294;SDS011;16305;48.566;8.846;2022-12-24T01:08:31;7.40;;;1.53;;
29294;SDS011;16305;48.566;8.846;2022-12-24T01:10:57;7.27;;;1.73;;
29294;SDS011;16305;48.566;8.846;2022-12-24T01:13:23;5.97;;;1.60;;
29294;SDS011;16305;48.566;8.846;2022-12-24T01:15:49;9.07;;;1.60;;
29294;SDS011;16305;48.566;8.846;2022-12-24T01:18:14;7.20;;;1.73;;
29294;SDS011;16305;48.566;8.846;2022-12-24T01:20:40;8.03;;;2.07;;
29294;SDS011;16305;48.566;8.846;2022-12-24T01:23:06;3.60;;;1.57;;
29294;SDS011;16305;48.566;8.846;2022-12-24T01:25:31;7.33;;;1.63;;
29294;SDS011;16305;48.566;8.846;2022-12-24T01:27:57;6.97;;;1.50;;
29294;SDS011;16305;48.566;8.846;2022-12-24T01:30:23;7.33;;;1.80;;
29294;SDS011;16305;48.566;8.846;2022-12-24T01:32:48;4.50;;;1.53;;
29294;SDS011;16305;48.566;8.846;2022-12-24T01:35:14;6.07;;;1.50;;
29294;SDS011;16305;48.566;8.846;2022-12-24T01:37:40;6.40;;;1.63;;
29294;SDS011;16305;48.566;8.846;2022-12-24T01:40:07;3.57;;;1.47;;
29294;SDS011;16305;48.566;8.846;2022-12-24T01:42:53;8.33;;;1.70;;
29294;SDS011;16305;48.566;8.846;2022-12-24T01:45:45;6.97;;;1.40;;
29294;SDS011;16305;48.566;8.846;2022-12-24T01:48:17;5.17;;;1.73;;
29294;SDS011;16305;48.566;8.846;2022-12-24T01:50:51;7.47;;;2.00;;
29294;SDS011;16305;48.566;8.846;2022-12-24T01:53:20;5.93;;;1.40;;
29294;SDS011;16305;48.566;8.846;2022-12-24T01:55:46;3.37;;;1.03;;
29294;SDS011;16305;48.566;8.846;2022-12-24T01:58:13;4.50;;;1.20;;
29294;SDS011;16305;48.566;8.846;2022-12-24T02:00:41;5.97;;;1.40;;
29294;SDS011;16305;48.566;8.846;2022-12-24T02:03:07;4.70;;;1.50;;
29294;SDS011;16305;48.566;8.846;2022-12-24T02:05:35;8.73;;;1.77;;
29294;SDS011;16305;48.566;8.846;2022-12-24T02:08:11;7.93;;;1.17;;
29294;SDS011;16305;48.566;8.846;2022-12-24T02:10:38;6.93;;;1.63;;
29294;SDS011;16305;48.566;8.846;2022-12-24T02:13:03;8.20;;;1.67;;
29294;SDS011;16305;48.566;8.846;2022-12-24T02:15:33;7.23;;;1.77;;
29294;SDS011;16305;48.566;8.846;2022-12-24T02:18:19;7.40;;;1.67;;
29294;SDS011;16305;48.566;8.846;2022-12-24T02:24:28;9.67;;;1.63;;
29294;SDS011;16305;48.566;8.846;2022-12-24T02:27:16;6.10;;;1.40;;
29294;SDS011;16305;48.566;8.846;2022-12-24T02:29:52;7.80;;;1.50;;
29294;SDS011;16305;48.566;8.846;2022-12-24T02:32:35;11.30;;;1.93;;
29294;SDS011;16305;48.566;8.846;2022-12-24T02:35:46;6.30;;;1.50;;
29294;SDS011;16305;48.566;8.846;2022-12-24T02:38:19;9.30;;;1.50;;
29294;SDS011;16305;48.566;8.846;2022-12-24T02:40:50;5.70;;;1.30;;
29294;SDS011;16305;48.566;8.846;2022-12-24T02:43:28;8.93;;;1.67;;
29294;SDS011;16305;48.566;8.846;2022-12-24T02:46:02;10.33;;;1.70;;
29294;SDS011;16305;48.566;8.846;2022-12-24T02:48:32;5.23;;;1.50;;
29294;SDS011;16305;48.566;8.846;2022-12-24T02:51:05;7.30;;;1.40;;
29294;SDS011;16305;48.566;8.846;2022-12-24T02:53:32;7.57;;;1.40;;
29294;SDS011;16305;48.566;8.846;2022-12-24T02:56:06;5.27;;;1.30;;
29294;SDS011;16305;48.566;8.846;2022-12-24T02:59:07;7.60;;;1.60;;
29294;SDS011;16305;48.566;8.846;2022-12-24T03:01:51;6.47;;;1.50;;
29294;SDS011;16305;48.566;8.846;2022-12-24T03:04:31;9.00;;;1.97;;
29294;SDS011;16305;48.566;8.846;2022-12-24T03:07:22;6.20;;;1.57;;
29294;SDS011;16305;48.566;8.846;2022-12-24T03:12:55;6.07;;;1.97;;
29294;SDS011;16305;48.566;8.846;2022-12-24T03:15:26;5.87;;;1.50;;
29294;SDS011;16305;48.566;8.846;2022-12-24T03:17:53;5.80;;;1.73;;
29294;SDS011;16305;48.566;8.846;2022-12-24T03:20:23;9.53;;;1.70;;
29294;SDS011;16305;48.566;8.846;2022-12-24T03:22:52;4.87;;;1.37;;
29294;SDS011;16305;48.566;8.846;2022-12-24T03:25:18;9.57;;;2.60;;
29294;SDS011;16305;48.566;8.846;2022-12-24T03:27:46;3.60;;;1.50;;
29294;SDS011;16305;48.566;8.846;2022-12-24T03:30:12;5.87;;;1.90;;
29294;SDS011;16305;48.566;8.846;2022-12-24T03:32:39;7.40;;;2.40;;
29294;SDS011;16305;48.566;8.846;2022-12-24T03:35:06;6.87;;;1.80;;
29294;SDS011;16305;48.566;8.846;2022-12-24T03:37:32;6.17;;;1.90;;
29294;SDS011;16305;48.566;8.846;2022-12-24T03:39:58;9.67;;;1.70;;
29294;SDS011;16305;48.566;8.846;2022-12-24T03:42:23;4.07;;;1.67;;
29294;SDS011;16305;48.566;8.846;2022-12-24T03:44:49;5.67;;;1.90;;
29294;SDS011;16305;48.566;8.846;2022-12-24T03:47:14;6.27;;;1.97;;
29294;SDS011;16305;48.566;8.846;2022-12-24T03:49:40;6.67;;;1.60;;
29294;SDS011;16305;48.566;8.846;2022-12-24T03:52:06;6.63;;;2.07;;
29294;SDS011;16305;48.566;8.846;2022-12-24T03:54:31;7.20;;;1.80;;
29294;SDS011;16305;48.566;8.846;2022-12-24T03:56:56;8.73;;;2.80;;
29294;SDS011;16305;48.566;8.846;2022-12-24T03:59:22;9.13;;;3.00;;
29294;SDS011;16305;48.566;8.846;2022-12-24T04:01:47;7.30;;;2.40;;
29294;SDS011;16305;48.566;8.846;2022-12-24T04:04:14;6.20;;;1.70;;
29294;SDS011;16305;48.566;8.846;2022-12-24T04:06:40;6.07;;;1.83;;
29294;SDS011;16305;48.566;8.846;2022-12-24T04:09:05;7.97;;;1.50;;
29294;SDS011;16305;48.566;8.846;2022-12-24T04:11:31;5.73;;;1.80;;
29294;SDS011;16305;48.566;8.846;2022-12-24T04:13:57;7.23;;;1.60;;
29294;SDS011;16305;48.566;8.846;2022-12-24T04:16:23;9.93;;;2.03;;
29294;SDS011;16305;48.566;8.846;2022-12-24T04:18:48;5.53;;;1.50;;
29294;SDS011;16305;48.566;8.846;2022-12-24T04:21:14;6.97;;;1.70;;
29294;SDS011;16305;48.566;8.846;2022-12-24T04:23:40;11.33;;;1.80;;
29294;SDS011;16305;48.566;8.846;2022-12-24T04:26:07;5.47;;;1.47;;
29294;SDS011;16305;48.566;8.846;2022-12-24T04:28:34;7.20;;;2.00;;
29294;SDS011;16305;48.566;8.846;2022-12-24T04:31:01;10.80;;;1.93;;
29294;SDS011;16305;48.566;8.846;2022-12-24T04:33:29;5.33;;;1.80;;
29294;SDS011;16305;48.566;8.846;2022-12-24T04:35:57;5.87;;;1.90;;
29294;SDS011;16305;48.566;8.846;2022-12-24T04:38:23;4.33;;;1.53;;
29294;SDS011;16305;48.566;8.846;2022-12-24T04:40:56;5.23;;;1.80;;
29294;SDS011;16305;48.566;8.846;2022-12-24T04:43:26;4.53;;;1.70;;
29294;SDS011;16305;48.566;8.846;2022-12-24T04:45:52;7.63;;;2.27;;
29294;SDS011;16305;48.566;8.846;2022-12-24T04:48:18;12.27;;;1.80;;
29294;SDS011;16305;48.566;8.846;2022-12-24T04:50:43;6.33;;;2.40;;
29294;SDS011;16305;48.566;8.846;2022-12-24T04:53:09;8.17;;;2.43;;
29294;SDS011;16305;48.566;8.846;2022-12-24T04:55:34;6.57;;;1.70;;
29294;SDS011;16305;48.566;8.846;2022-12-24T04:58:00;6.00;;;1.80;;
29294;SDS011;16305;48.566;8.846;2022-12-24T05:00:25;7.60;;;2.20;;
29294;SDS011;16305;48.566;8.846;2022-12-24T05:02:51;7.93;;;2.50;;
29294;SDS011;16305;48.566;8.846;2022-12-24T05:05:16;8.33;;;2.23;;
29294;SDS011;16305;48.566;8.846;2022-12-24T05:07:42;4.33;;;1.77;;
29294;SDS011;16305;48.566;8.846;2022-12-24T05:10:08;5.70;;;2.43;;
29294;SDS011;16305;48.566;8.846;2022-12-24T05:12:34;8.00;;;2.00;;
29294;SDS011;16305;48.566;8.846;2022-12-24T05:15:00;7.03;;;2.20;;
29294;SDS011;16305;48.566;8.846;2022-12-24T05:17:26;5.70;;;2.33;;
29294;SDS011;16305;48.566;8.846;2022-12-24T05:19:51;4.97;;;1.63;;
29294;SDS011;16305;48.566;8.846;2022-12-24T05:22:17;5.97;;;1.60;;
29294;SDS011;16305;48.566;8.846;2022-12-24T05:25:01;4.80;;;1.63;;
29294;SDS011;16305;48.566;8.846;2022-12-24T05:27:46;7.30;;;2.20;;
29294;SDS011;16305;48.566;8.846;2022-12-24T05:30:11;7.53;;;2.20;;
29294;SDS011;16305;48.566;8.846;2022-12-24T05:32:37;5.90;;;1.90;;
29294;SDS011;16305;48.566;8.846;2022-12-24T05:35:02;8.63;;;1.90;;
29294;SDS011;16305;48.566;8.846;2022-12-24T05:37:28;9.70;;;2.10;;
29294;SDS011;16305;48.566;8.846;2022-12-24T05:39:53;7.40;;;2.00;;
29294;SDS011;16305;48.566;8.846;2022-12-24T05:42:19;8.33;;;1.97;;
29294;SDS011;16305;48.566;8.846;2022-12-24T05:44:44;8.80;;;2.03;;
29294;SDS011;16305;48.566;8.846;2022-12-24T05:47:10;7.37;;;1.90;;
29294;SDS011;16305;48.566;8.846;2022-12-24T05:49:35;6.20;;;1.70;;
29294;SDS011;16305;48.566;8.846;2022-12-24T05:52:01;11.83;;;3.30;;
29294;SDS011;16305;48.566;8.846;2022-12-24T05:54:26;7.20;;;2.20;;
29294;SDS011;16305;48.566;8.846;2022-12-24T05:56:52;9.00;;;2.50;;
29294;SDS011;16305;48.566;8.846;2022-12-24T05:59:17;8.80;;;2.20;;
29294;SDS011;16305;48.566;8.846;2022-12-24T06:01:43;10.30;;;2.67;;
29294;SDS011;16305;48.566;8.846;2022-12-24T06:04:11;3.70;;;1.87;;
29294;SDS011;16305;48.566;8.846;2022-12-24T06:06:37;5.07;;;2.00;;
29294;SDS011;16305;48.566;8.846;2022-12-24T06:09:02;7.07;;;3.20;;
29294;SDS011;16305;48.566;8.846;2022-12-24T06:11:28;5.67;;;2.17;;
29294;SDS011;16305;48.566;8.846;2022-12-24T06:13:54;6.17;;;2.07;;
29294;SDS011;16305;48.566;8.846;2022-12-24T06:16:20;6.40;;;2.10;;
29294;SDS011;16305;48.566;8.846;2022-12-24T06:18:47;10.63;;;2.80;;
29294;SDS011;16305;48.566;8.846;2022-12-24T06:21:12;6.43;;;2.00;;
29294;SDS011;16305;48.566;8.846;2022-12-24T06:23:39;11.10;;;2.50;;
29294;SDS011;16305;48.566;8.846;2022-12-24T06:26:06;7.33;;;3.17;;
29294;SDS011;16305;48.566;8.846;2022-12-24T06:28:34;8.27;;;2.87;;
29294;SDS011;16305;48.566;8.846;2022-12-24T06:31:01;5.27;;;2.50;;
29294;SDS011;16305;48.566;8.846;2022-12-24T06:33:28;7.33;;;2.70;;
29294;SDS011;16305;48.566;8.846;2022-12-24T06:35:54;9.97;;;3.20;;
29294;SDS011;16305;48.566;8.846;2022-12-24T06:38:20;7.93;;;3.20;;
29294;SDS011;16305;48.566;8.846;2022-12-24T06:40:45;6.97;;;3.30;;
29294;SDS011;16305;48.566;8.846;2022-12-24T06:43:12;8.03;;;2.90;;
29294;SDS011;16305;48.566;8.846;2022-12-24T06:45:38;7.00;;;2.40;;
29294;SDS011;16305;48.566;8.846;2022-12-24T06:48:08;8.73;;;2.60;;
29294;SDS011;16305;48.566;8.846;2022-12-24T06:50:33;5.63;;;2.20;;
29294;SDS011;16305;48.566;8.846;2022-12-24T06:52:59;5.53;;;2.40;;
29294;SDS011;16305;48.566;8.846;2022-12-24T06:55:24;6.90;;;2.83;;
29294;SDS011;16305;48.566;8.846;2022-12-24T06:57:50;6.67;;;2.33;;
29294;SDS011;16305;48.566;8.846;2022-12-24T07:00:15;8.73;;;2.30;;
29294;SDS011;16305;48.566;8.846;2022-12-24T07:02:41;8.07;;;2.53;;
29294;SDS011;16305;48.566;8.846;2022-12-24T07:05:08;10.67;;;4.60;;
29294;SDS011;16305;48.566;8.846;2022-12-24T07:07:36;8.20;;;3.83;;
29294;SDS011;16305;48.566;8.846;2022-12-24T07:10:03;10.07;;;3.13;;
29294;SDS011;16305;48.566;8.846;2022-12-24T07:12:29;8.70;;;3.17;;
29294;SDS011;16305;48.566;8.846;2022-12-24T07:14:55;11.10;;;3.60;;
29294;SDS011;16305;48.566;8.846;2022-12-24T07:17:21;6.47;;;3.40;;
29294;SDS011;16305;48.566;8.846;2022-12-24T07:19:46;8.60;;;3.70;;
29294;SDS011;16305;48.566;8.846;2022-12-24T07:22:12;14.33;;;3.70;;
29294;SDS011;16305;48.566;8.846;2022-12-24T07:24:37;11.17;;;3.07;;
29294;SDS011;16305;48.566;8.846;2022-12-24T07:27:03;9.17;;;2.90;;
29294;SDS011;16305;48.566;8.846;2022-12-24T07:29:28;11.07;;;4.03;;
29294;SDS011;16305;48.566;8.846;2022-12-24T07:31:54;14.67;;;5.73;;
29294;SDS011;16305;48.566;8.846;2022-12-24T07:34:19;14.50;;;6.13;;
29294;SDS011;16305;48.566;8.846;2022-12-24T07:36:45;13.30;;;6.27;;
29294;SDS011;16305;48.566;8.846;2022-12-24T07:39:10;13.17;;;7.83;;
29294;SDS011;16305;48.566;8.846;2022-12-24T07:41:36;19.70;;;8.73;;
29294;SDS011;16305;48.566;8.846;2022-12-24T07:44:01;12.73;;;7.70;;
29294;SDS011;16305;48.566;8.846;2022-12-24T07:46:27;14.17;;;5.60;;
29294;SDS011;16305;48.566;8.846;2022-12-24T07:48:52;8.20;;;5.00;;
29294;SDS011;16305;48.566;8.846;2022-12-24T07:51:18;18.53;;;5.07;;
29294;SDS011;16305;48.566;8.846;2022-12-24T07:53:43;13.33;;;5.23;;
29294;SDS011;16305;48.566;8.846;2022-12-24T07:56:12;12.17;;;4.27;;
29294;SDS011;16305;48.566;8.846;2022-12-24T07:58:41;10.20;;;4.30;;
29294;SDS011;16305;48.566;8.846;2022-12-24T08:01:07;10.80;;;4.97;;
29294;SDS011;16305;48.566;8.846;2022-12-24T08:03:35;13.63;;;6.07;;
29294;SDS011;16305;48.566;8.846;2022-12-24T08:06:01;15.40;;;5.67;;
29294;SDS011;16305;48.566;8.846;2022-12-24T08:08:27;12.83;;;3.77;;
29294;SDS011;16305;48.566;8.846;2022-12-24T08:10:53;11.07;;;3.37;;
29294;SDS011;16305;48.566;8.846;2022-12-24T08:13:24;14.27;;;3.07;;
29294;SDS011;16305;48.566;8.846;2022-12-24T08:15:49;13.93;;;4.20;;
29294;SDS011;16305;48.566;8.846;2022-12-24T08:18:15;12.50;;;4.20;;
29294;SDS011;16305;48.566;8.846;2022-12-24T08:20:40;17.60;;;5.53;;
29294;SDS011;16305;48.566;8.846;2022-12-24T08:23:06;10.87;;;5.30;;
29294;SDS011;16305;48.566;8.846;2022-12-24T08:25:32;13.87;;;5.30;;
29294;SDS011;16305;48.566;8.846;2022-12-24T08:27:58;8.10;;;4.73;;
29294;SDS011;16305;48.566;8.846;2022-12-24T08:30:24;10.13;;;3.87;;
29294;SDS011;16305;48.566;8.846;2022-12-24T08:32:49;11.33;;;3.90;;
29294;SDS011;16305;48.566;8.846;2022-12-24T08:35:15;12.60;;;3.50;;
29294;SDS011;16305;48.566;8.846;2022-12-24T08:37:41;18.13;;;4.87;;
29294;SDS011;16305;48.566;8.846;2022-12-24T08:40:06;16.87;;;5.13;;
29294;SDS011;16305;48.566;8.846;2022-12-24T08:42:32;10.10;;;5.60;;
29294;SDS011;16305;48.566;8.846;2022-12-24T08:44:58;10.77;;;4.70;;
29294;SDS011;16305;48.566;8.846;2022-12-24T08:47:24;16.50;;;6.07;;
29294;SDS011;16305;48.566;8.846;2022-12-24T08:49:49;24.13;;;9.80;;
29294;SDS011;16305;48.566;8.846;2022-12-24T08:52:15;24.03;;;7.50;;
29294;SDS011;16305;48.566;8.846;2022-12-24T08:54:40;27.47;;;8.20;;
29294;SDS011;16305;48.566;8.846;2022-12-24T08:57:06;11.67;;;3.33;;
29294;SDS011;16305;48.566;8.846;2022-12-24T08:59:31;12.20;;;3.17;;
29294;SDS011;16305;48.566;8.846;2022-12-24T09:01:57;7.47;;;2.80;;
29294;SDS011;16305;48.566;8.846;2022-12-24T09:04:22;9.63;;;2.20;;
29294;SDS011;16305;48.566;8.846;2022-12-24T09:06:48;10.47;;;2.80;;
29294;SDS011;16305;48.566;8.846;2022-12-24T09:09:13;12.23;;;2.80;;
29294;SDS011;16305;48.566;8.846;2022-12-24T09:11:39;13.17;;;3.67;;
29294;SDS011;16305;48.566;8.846;2022-12-24T09:14:04;11.83;;;2.77;;
29294;SDS011;16305;48.566;8.846;2022-12-24T09:16:30;13.73;;;3.10;;
29294;SDS011;16305;48.566;8.846;2022-12-24T09:18:55;10.20;;;3.23;;
29294;SDS011;16305;48.566;8.846;2022-12-24T09:21:22;9.57;;;3.20;;
29294;SDS011;16305;48.566;8.846;2022-12-24T09:23:47;15.20;;;4.40;;
29294;SDS011;16305;48.566;8.846;2022-12-24T09:26:14;13.37;;;3.60;;
29294;SDS011;16305;48.566;8.846;2022-12-24T09:28:48;14.23;;;2.73;;
29294;SDS011;16305;48.566;8.846;2022-12-24T09:31:14;12.57;;;3.20;;
29294;SDS011;16305;48.566;8.846;2022-12-24T09:33:40;12.37;;;2.90;;
29294;SDS011;16305;48.566;8.846;2022-12-24T09:36:08;10.37;;;2.77;;
29294;SDS011;16305;48.566;8.846;2022-12-24T09:38:34;7.20;;;2.73;;
29294;SDS011;16305;48.566;8.846;2022-12-24T09:41:09;12.87;;;2.77;;
29294;SDS011;16305;48.566;8.846;2022-12-24T09:43:36;13.60;;;2.70;;
29294;SDS011;16305;48.566;8.846;2022-12-24T09:46:45;12.33;;;2.60;;
29294;SDS011;16305;48.566;8.846;2022-12-24T09:48:55;10.60;;;2.50;;
29294;SDS011;16305;48.566;8.846;2022-12-24T09:51:27;8.57;;;2.70;;
29294;SDS011;16305;48.566;8.846;2022-12-24T09:54:02;11.53;;;3.07;;
29294;SDS011;16305;48.566;8.846;2022-12-24T09:56:34;16.17;;;2.90;;
29294;SDS011;16305;48.566;8.846;2022-12-24T09:59:04;16.37;;;3.60;;
29294;SDS011;16305;48.566;8.846;2022-12-24T10:01:34;12.60;;;3.50;;
29294;SDS011;16305;48.566;8.846;2022-12-24T10:04:10;9.57;;;2.50;;
29294;SDS011;16305;48.566;8.846;2022-12-24T10:06:58;11.10;;;2.80;;
29294;SDS011;16305;48.566;8.846;2022-12-24T10:09:35;9.80;;;2.70;;
29294;SDS011;16305;48.566;8.846;2022-12-24T10:12:43;8.10;;;2.67;;
29294;SDS011;16305;48.566;8.846;2022-12-24T10:16:32;11.10;;;2.20;;
29294;SDS011;16305;48.566;8.846;2022-12-24T10:18:39;9.20;;;2.13;;
29294;SDS011;16305;48.566;8.846;2022-12-24T10:21:20;7.57;;;2.20;;
29294;SDS011;16305;48.566;8.846;2022-12-24T10:24:00;8.67;;;2.37;;
29294;SDS011;16305;48.566;8.846;2022-12-24T10:26:52;13.00;;;2.70;;
29294;SDS011;16305;48.566;8.846;2022-12-24T10:29:24;11.10;;;2.10;;
29294;SDS011;16305;48.566;8.846;2022-12-24T10:31:54;9.67;;;3.13;;
29294;SDS011;16305;48.566;8.846;2022-12-24T10:34:35;11.87;;;4.17;;
29294;SDS011;16305;48.566;8.846;2022-12-24T10:37:15;5.90;;;1.70;;
29294;SDS011;16305;48.566;8.846;2022-12-24T10:39:44;7.60;;;1.87;;
29294;SDS011;16305;48.566;8.846;2022-12-24T10:42:10;11.27;;;2.23;;
29294;SDS011;16305;48.566;8.846;2022-12-24T10:44:37;11.10;;;2.93;;
29294;SDS011;16305;48.566;8.846;2022-12-24T10:47:03;9.20;;;2.53;;
29294;SDS011;16305;48.566;8.846;2022-12-24T10:52:38;7.37;;;2.83;;
29294;SDS011;16305;48.566;8.846;2022-12-24T10:57:44;12.70;;;2.90;;
29294;SDS011;16305;48.566;8.846;2022-12-24T11:00:20;12.67;;;2.57;;
29294;SDS011;16305;48.566;8.846;2022-12-24T11:02:48;7.80;;;2.73;;
29294;SDS011;16305;48.566;8.846;2022-12-24T11:05:30;11.40;;;2.33;;
29294;SDS011;16305;48.566;8.846;2022-12-24T11:08:17;12.00;;;2.00;;
29294;SDS011;16305;48.566;8.846;2022-12-24T11:10:52;7.47;;;1.80;;
29294;SDS011;16305;48.566;8.846;2022-12-24T11:16:04;10.17;;;2.50;;
29294;SDS011;16305;48.566;8.846;2022-12-24T11:18:49;10.70;;;3.40;;
29294;SDS011;16305;48.566;8.846;2022-12-24T11:21:20;7.33;;;1.90;;
29294;SDS011;16305;48.566;8.846;2022-12-24T11:23:54;8.83;;;2.63;;
29294;SDS011;16305;48.566;8.846;2022-12-24T11:26:23;9.43;;;2.37;;
29294;SDS011;16305;48.566;8.846;2022-12-24T11:29:02;13.97;;;2.77;;
29294;SDS011;16305;48.566;8.846;2022-12-24T11:31:29;12.40;;;2.47;;
29294;SDS011;16305;48.566;8.846;2022-12-24T11:33:57;10.57;;;3.40;;
29294;SDS011;16305;48.566;8.846;2022-12-24T11:36:22;12.60;;;2.73;;
29294;SDS011;16305;48.566;8.846;2022-12-24T11:38:53;11.70;;;3.37;;
29294;SDS011;16305;48.566;8.846;2022-12-24T11:41:21;11.43;;;3.00;;
29294;SDS011;16305;48.566;8.846;2022-12-24T11:43:47;7.83;;;2.23;;
29294;SDS011;16305;48.566;8.846;2022-12-24T11:46:17;7.17;;;2.20;;
29294;SDS011;16305;48.566;8.846;2022-12-24T11:48:45;8.83;;;2.40;;
29294;SDS011;16305;48.566;8.846;2022-12-24T11:51:18;10.10;;;2.20;;
29294;SDS011;16305;48.566;8.846;2022-12-24T11:54:03;7.07;;;2.23;;
29294;SDS011;16305;48.566;8.846;2022-12-24T11:56:46;11.23;;;2.47;;
29294;SDS011;16305;48.566;8.846;2022-12-24T12:04:24;7.97;;;2.17;;
29294;SDS011;16305;48.566;8.846;2022-12-24T12:07:00;8.67;;;2.50;;
29294;SDS011;16305;48.566;8.846;2022-12-24T12:11:59;10.80;;;2.63;;
29294;SDS011;16305;48.566;8.846;2022-12-24T12:14:31;11.77;;;2.63;;
29294;SDS011;16305;48.566;8.846;2022-12-24T12:19:48;6.70;;;1.90;;
29294;SDS011;16305;48.566;8.846;2022-12-24T12:22:47;6.97;;;1.90;;
29294;SDS011;16305;48.566;8.846;2022-12-24T12:25:37;8.13;;;1.90;;
29294;SDS011;16305;48.566;8.846;2022-12-24T12:28:07;8.50;;;2.20;;
29294;SDS011;16305;48.566;8.846;2022-12-24T12:36:12;8.40;;;1.77;;
29294;SDS011;16305;48.566;8.846;2022-12-24T12:38:41;6.73;;;1.60;;
29294;SDS011;16305;48.566;8.846;2022-12-24T12:52:46;8.43;;;2.23;;
29294;SDS011;16305;48.566;8.846;2022-12-24T12:58:31;6.67;;;2.10;;
29294;SDS011;16305;48.566;8.846;2022-12-24T13:01:00;11.93;;;2.30;;
29294;SDS011;16305;48.566;8.846;2022-12-24T13:09:12;11.90;;;2.73;;
29294;SDS011;16305;48.566;8.846;2022-12-24T13:12:00;6.17;;;1.53;;
29294;SDS011;16305;48.566;8.846;2022-12-24T13:20:23;7.90;;;2.60;;
29294;SDS011;16305;48.566;8.846;2022-12-24T13:30:52;12.07;;;2.60;;
29294;SDS011;16305;48.566;8.846;2022-12-24T13:36:07;12.20;;;4.37;;
29294;SDS011;16305;48.566;8.846;2022-12-24T13:38:42;15.30;;;4.60;;
29294;SDS011;16305;48.566;8.846;2022-12-24T13:49:47;6.80;;;3.17;;
29294;SDS011;16305;48.566;8.846;2022-12-24T13:52:16;11.20;;;3.20;;
29294;SDS011;16305;48.566;8.846;2022-12-24T13:59:56;10.60;;;3.30;;
29294;SDS011;16305;48.566;8.846;2022-12-24T14:02:28;7.60;;;2.50;;
29294;SDS011;16305;48.566;8.846;2022-12-24T14:04:59;6.03;;;2.80;;
29294;SDS011;16305;48.566;8.846;2022-12-24T14:07:29;9.13;;;3.10;;
29294;SDS011;16305;48.566;8.846;2022-12-24T14:09:55;9.83;;;3.60;;
29294;SDS011;16305;48.566;8.846;2022-12-24T14:12:30;9.27;;;3.30;;
29294;SDS011;16305;48.566;8.846;2022-12-24T14:18:24;9.03;;;2.90;;
29294;SDS011;16305;48.566;8.846;2022-12-24T14:20:50;8.33;;;3.20;;
29294;SDS011;16305;48.566;8.846;2022-12-24T14:23:27;10.37;;;3.47;;
29294;SDS011;16305;48.566;8.846;2022-12-24T14:26:01;11.17;;;3.80;;
29294;SDS011;16305;48.566;8.846;2022-12-24T14:28:33;7.40;;;2.93;;
29294;SDS011;16305;48.566;8.846;2022-12-24T14:31:04;13.07;;;2.60;;
29294;SDS011;16305;48.566;8.846;2022-12-24T14:33:37;10.33;;;2.40;;
29294;SDS011;16305;48.566;8.846;2022-12-24T14:36:02;9.60;;;2.70;;
29294;SDS011;16305;48.566;8.846;2022-12-24T14:38:28;8.70;;;1.80;;
29294;SDS011;16305;48.566;8.846;2022-12-24T14:40:58;7.57;;;1.83;;
29294;SDS011;16305;48.566;8.846;2022-12-24T14:44:00;7.40;;;1.90;;
29294;SDS011;16305;48.566;8.846;2022-12-24T14:47:04;7.27;;;2.10;;
29294;SDS011;16305;48.566;8.846;2022-12-24T14:54:56;8.77;;;2.70;;
29294;SDS011;16305;48.566;8.846;2022-12-24T14:57:22;7.10;;;2.67;;
29294;SDS011;16305;48.566;8.846;2022-12-24T14:59:59;11.67;;;2.77;;
29294;SDS011;16305;48.566;8.846;2022-12-24T15:02:33;8.90;;;3.83;;
29294;SDS011;16305;48.566;8.846;2022-12-24T15:05:17;9.50;;;3.20;;
29294;SDS011;16305;48.566;8.846;2022-12-24T15:07:56;7.73;;;3.67;;
29294;SDS011;16305;48.566;8.846;2022-12-24T15:10:25;11.43;;;3.63;;
29294;SDS011;16305;48.566;8.846;2022-12-24T15:13:15;13.77;;;5.20;;
29294;SDS011;16305;48.566;8.846;2022-12-24T15:16:13;11.30;;;5.10;;
29294;SDS011;16305;48.566;8.846;2022-12-24T15:18:46;9.90;;;4.80;;
29294;SDS011;16305;48.566;8.846;2022-12-24T15:21:15;16.47;;;9.33;;
29294;SDS011;16305;48.566;8.846;2022-12-24T15:23:47;13.27;;;8.57;;
29294;SDS011;16305;48.566;8.846;2022-12-24T15:26:22;16.43;;;9.70;;
29294;SDS011;16305;48.566;8.846;2022-12-24T15:28:51;11.57;;;7.40;;
29294;SDS011;16305;48.566;8.846;2022-12-24T15:31:19;7.73;;;4.27;;
29294;SDS011;16305;48.566;8.846;2022-12-24T15:33:48;11.77;;;4.40;;
29294;SDS011;16305;48.566;8.846;2022-12-24T15:36:15;11.43;;;2.87;;
29294;SDS011;16305;48.566;8.846;2022-12-24T15:38:50;9.93;;;4.07;;
29294;SDS011;16305;48.566;8.846;2022-12-24T15:41:21;11.10;;;4.73;;
29294;SDS011;16305;48.566;8.846;2022-12-24T15:43:50;33.33;;;16.57;;
29294;SDS011;16305;48.566;8.846;2022-12-24T15:46:27;11.33;;;6.23;;
29294;SDS011;16305;48.566;8.846;2022-12-24T15:48:55;13.40;;;6.60;;
29294;SDS011;16305;48.566;8.846;2022-12-24T15:51:26;10.70;;;5.43;;
29294;SDS011;16305;48.566;8.846;2022-12-24T15:54:04;10.53;;;5.53;;
29294;SDS011;16305;48.566;8.846;2022-12-24T15:56:43;11.53;;;5.30;;
29294;SDS011;16305;48.566;8.846;2022-12-24T16:01:47;7.50;;;3.40;;
29294;SDS011;16305;48.566;8.846;2022-12-24T16:04:30;9.17;;;3.70;;
29294;SDS011;16305;48.566;8.846;2022-12-24T16:07:00;9.13;;;3.67;;
29294;SDS011;16305;48.566;8.846;2022-12-24T16:09:40;15.83;;;10.17;;
29294;SDS011;16305;48.566;8.846;2022-12-24T16:12:11;19.20;;;10.77;;
29294;SDS011;16305;48.566;8.846;2022-12-24T16:14:43;16.63;;;10.00;;
29294;SDS011;16305;48.566;8.846;2022-12-24T16:17:16;16.67;;;10.23;;
29294;SDS011;16305;48.566;8.846;2022-12-24T16:19:48;13.13;;;6.53;;
29294;SDS011;16305;48.566;8.846;2022-12-24T16:22:18;17.00;;;10.13;;
29294;SDS011;16305;48.566;8.846;2022-12-24T16:24:59;15.97;;;7.70;;
29294;SDS011;16305;48.566;8.846;2022-12-24T16:27:26;11.87;;;5.13;;
29294;SDS011;16305;48.566;8.846;2022-12-24T16:29:52;8.67;;;4.13;;
29294;SDS011;16305;48.566;8.846;2022-12-24T16:32:51;8.80;;;4.20;;